createdAt,value
2022-07-30T00:00:40.150Z,100028.72
2022-07-30T00:03:08.683Z,100034.56
2022-07-30T00:05:37.170Z,100028.63
2022-07-30T00:08:05.993Z,100022.47
2022-07-30T00:10:34.440Z,100027.41
2022-07-30T00:13:02.979Z,100035.94
2022-07-30T00:15:33.047Z,100025.59
2022-07-30T00:18:01.620Z,100018.56
2022-07-30T00:20:30.415Z,100017.97
2022-07-30T00:23:00.741Z,100008.22
2022-07-30T00:25:29.117Z,100017.34
2022-07-30T00:27:57.756Z,100005.78
2022-07-30T00:30:26.766Z,100012.41
2022-07-30T00:32:56.658Z,100005.38
2022-07-30T00:35:25.128Z,100001.69
2022-07-30T00:37:56.130Z,99995.94
2022-07-30T00:40:25.150Z,99999.44
2022-07-30T00:42:53.682Z,100010.44
2022-07-30T00:45:22.106Z,100008.78
2022-07-30T00:47:50.820Z,100002.56
2022-07-30T00:50:20.731Z,100002.19
2022-07-30T00:52:50.054Z,99993.72
2022-07-30T00:55:19.265Z,99992.28
2022-07-30T00:57:47.857Z,99982.59
2022-07-30T01:00:18.563Z,100001.41
2022-07-30T01:02:47.366Z,99996.47
2022-07-30T01:05:16.166Z,99991.09
2022-07-30T01:07:46.503Z,99987.78
2022-07-30T01:10:16.807Z,99982.59
2022-07-30T01:12:47.315Z,99991.72
2022-07-30T01:15:17.381Z,99991.97
2022-07-30T01:17:52.705Z,99988.66
2022-07-30T01:20:27.844Z,99984.31
2022-07-30T01:23:06.535Z,99983.72
2022-07-30T01:25:55.664Z,99980.44
2022-07-30T01:28:27.895Z,99977.94
2022-07-30T01:30:58.624Z,99968.44
2022-07-30T01:33:29.111Z,99974.88
2022-07-30T01:35:59.384Z,99970.53
2022-07-30T01:38:35.163Z,99975.91
2022-07-30T01:41:08.051Z,99978.00
2022-07-30T01:43:37.677Z,99970.09
2022-07-30T01:46:07.386Z,99970.09
2022-07-30T01:48:38.704Z,99968.69
2022-07-30T01:51:08.149Z,99972.41
2022-07-30T01:53:40.875Z,99963.50
2022-07-30T01:56:13.580Z,99955.66
2022-07-30T01:58:48.209Z,99964.78
2022-07-30T02:01:17.146Z,99961.47
2022-07-30T02:03:45.985Z,99957.75
2022-07-30T02:06:20.000Z,99952.81
2022-07-30T02:08:55.797Z,99947.19
2022-07-30T02:11:39.615Z,99944.50
2022-07-30T02:14:12.819Z,99950.72
2022-07-30T02:16:44.365Z,99956.72
2022-07-30T02:19:15.946Z,99957.94
2022-07-30T02:21:50.493Z,99960.88
2022-07-30T02:24:23.746Z,99958.38
2022-07-30T02:26:58.355Z,99956.97
2022-07-30T02:29:27.653Z,99948.28
2022-07-30T02:31:59.919Z,99955.75
2022-07-30T02:34:31.392Z,99962.19
2022-07-30T02:37:02.746Z,99951.63
2022-07-30T02:39:33.077Z,99941.09
2022-07-30T02:42:05.271Z,99941.28
2022-07-30T02:44:34.772Z,99951.25
2022-07-30T02:47:05.415Z,99942.56
2022-07-30T02:49:37.097Z,99936.59
2022-07-30T02:52:09.333Z,99932.25
2022-07-30T02:54:40.183Z,99936.19
2022-07-30T02:57:11.164Z,99927.75
2022-07-30T02:59:42.659Z,99925.06
2022-07-30T03:02:14.882Z,99919.06
2022-07-30T03:04:44.881Z,99921.13
2022-07-30T03:07:18.677Z,99921.13
2022-07-30T03:09:52.121Z,99917.22
2022-07-30T03:12:23.974Z,99919.91
2022-07-30T03:14:52.835Z,99917.63
2022-07-30T03:17:23.343Z,99919.53
2022-07-30T03:19:52.467Z,99922.41
2022-07-30T03:22:22.805Z,99923.69
2022-07-30T03:24:53.010Z,99925.53
2022-07-30T03:27:24.938Z,99915.00
2022-07-30T03:29:56.177Z,99917.09
2022-07-30T03:32:26.215Z,99915.81
2022-07-30T03:34:56.118Z,99914.59
2022-07-30T03:37:27.221Z,99913.78
2022-07-30T03:39:58.671Z,99912.94
2022-07-30T03:42:28.983Z,99912.94
2022-07-30T03:44:59.413Z,99909.66
2022-07-30T03:47:29.338Z,99912.34
2022-07-30T03:49:58.066Z,99915.03
2022-07-30T03:52:27.627Z,99908.00
2022-07-30T03:54:56.504Z,99900.19
2022-07-30T03:57:25.277Z,99906.34
2022-07-30T03:59:55.357Z,99899.34
2022-07-30T04:02:23.855Z,99904.09
2022-07-30T04:04:52.878Z,99902.69
2022-07-30T04:07:21.414Z,99902.28
2022-07-30T04:09:49.948Z,99901.91
2022-07-30T04:12:18.415Z,99896.09
2022-07-30T04:14:47.300Z,99892.38
2022-07-30T04:17:23.137Z,99893.22
2022-07-30T04:19:55.227Z,99889.50
2022-07-30T04:22:29.749Z,99884.56
2022-07-30T04:25:00.111Z,99888.66
2022-07-30T04:27:29.578Z,99885.78
2022-07-30T04:29:58.485Z,99881.69
2022-07-30T04:32:30.025Z,99888.09
2022-07-30T04:34:59.145Z,99887.03
2022-07-30T04:37:29.363Z,99891.63
2022-07-30T04:39:58.984Z,99898.22
2022-07-30T04:42:28.984Z,99895.28
2022-07-30T04:44:58.388Z,99893.84
2022-07-30T04:47:28.513Z,99885.59
2022-07-30T04:49:58.676Z,99894.69
2022-07-30T04:52:27.856Z,99898.19
2022-07-30T04:54:59.387Z,99898.00
2022-07-30T04:57:30.022Z,99892.81
2022-07-30T04:59:58.627Z,99895.47
2022-07-30T05:02:31.693Z,99897.31
2022-07-30T05:05:01.445Z,99901.41
2022-07-30T05:07:33.717Z,99897.84
2022-07-30T05:10:02.361Z,99903.41
2022-07-30T05:12:34.654Z,99901.94
2022-07-30T05:15:03.167Z,99914.94
2022-07-30T05:17:33.342Z,99900.25
2022-07-30T05:20:02.045Z,99904.19
2022-07-30T05:22:31.376Z,99914.53
2022-07-30T05:25:00.189Z,99914.16
2022-07-30T05:27:28.981Z,99921.97
2022-07-30T05:29:57.447Z,99920.31
2022-07-30T05:32:27.130Z,99922.78
2022-07-30T05:34:58.826Z,99924.00
2022-07-30T05:37:27.354Z,99923.56
2022-07-30T05:40:02.324Z,99916.09
2022-07-30T05:42:31.490Z,99917.94
2022-07-30T05:45:00.875Z,99918.09
2022-07-30T05:47:29.335Z,99899.09
2022-07-30T05:50:04.207Z,99917.31
2022-07-30T05:52:33.599Z,99916.88
2022-07-30T05:55:02.153Z,99913.09
2022-07-30T05:57:30.744Z,99912.22
2022-07-30T05:59:59.349Z,99907.84
2022-07-30T06:02:27.893Z,99908.63
2022-07-30T06:04:56.457Z,99891.47
2022-07-30T06:07:26.360Z,99912.91
2022-07-30T06:09:54.821Z,99901.50
2022-07-30T06:12:23.523Z,99898.13
2022-07-30T06:14:52.058Z,99897.91
2022-07-30T06:17:20.515Z,99896.72
2022-07-30T06:19:49.014Z,99898.38
2022-07-30T06:22:20.699Z,99906.00
2022-07-30T06:24:52.709Z,99905.31
2022-07-30T06:27:21.111Z,99878.47
2022-07-30T06:29:49.581Z,99902.19
2022-07-30T06:32:19.443Z,99899.13
2022-07-30T06:34:47.880Z,99900.78
2022-07-30T06:37:17.242Z,99901.53
2022-07-30T06:39:57.946Z,99894.47
2022-07-30T06:42:29.149Z,99901.84
2022-07-30T06:44:57.753Z,99892.44
2022-07-30T06:47:29.334Z,99907.72
2022-07-30T06:49:58.434Z,99897.06
2022-07-30T06:52:26.933Z,99890.63
2022-07-30T06:54:55.653Z,99890.47
2022-07-30T06:57:24.339Z,99902.00
2022-07-30T06:59:56.236Z,99899.44
2022-07-30T07:02:26.712Z,99895.44
2022-07-30T07:05:02.115Z,99894.31
2022-07-30T07:07:41.164Z,99889.25
2022-07-30T07:10:11.434Z,99892.06
2022-07-30T07:12:39.899Z,99897.75
2022-07-30T07:15:11.144Z,99900.34
2022-07-30T07:17:40.724Z,99894.81
2022-07-30T07:20:10.222Z,99898.38
2022-07-30T07:22:50.178Z,99893.00
2022-07-30T07:25:19.048Z,99897.31
2022-07-30T07:28:11.740Z,99892.47
2022-07-30T07:30:38.414Z,99890.56
2022-07-30T07:33:07.102Z,99891.31
2022-07-30T07:35:45.537Z,99894.63
2022-07-30T07:38:17.835Z,99887.69
2022-07-30T07:40:47.504Z,99880.06
2022-07-30T07:43:16.867Z,99869.78
2022-07-30T07:45:48.163Z,99880.81
2022-07-30T07:48:17.183Z,99875.66
2022-07-30T07:50:45.845Z,99869.78
2022-07-30T07:53:14.557Z,99874.16
2022-07-30T07:55:43.517Z,99880.63
2022-07-30T07:58:18.182Z,99873.81
2022-07-30T08:00:56.045Z,99877.09
2022-07-30T08:03:25.655Z,99869.47
2022-07-30T08:06:05.419Z,99875.09
2022-07-30T08:08:37.289Z,99872.72
2022-07-30T08:11:07.729Z,99868.75
2022-07-30T08:13:52.331Z,99862.97
2022-07-30T08:16:24.172Z,99871.09
2022-07-30T08:18:52.767Z,99879.03
2022-07-30T08:21:21.200Z,99870.44
2022-07-30T08:23:50.070Z,99880.31
2022-07-30T08:26:18.521Z,99880.66
2022-07-30T08:28:47.036Z,99881.84
2022-07-30T08:31:15.916Z,99875.50
2022-07-30T08:33:46.121Z,99882.06
2022-07-30T08:36:14.609Z,99875.28
2022-07-30T08:38:43.155Z,99872.66
2022-07-30T08:41:11.720Z,99871.72
2022-07-30T08:43:41.499Z,99880.25
2022-07-30T08:46:14.367Z,99877.06
2022-07-30T08:48:43.803Z,99880.03
2022-07-30T08:51:14.846Z,99878.22
2022-07-30T08:53:44.776Z,99886.53
2022-07-30T08:56:13.526Z,99885.03
2022-07-30T08:58:43.553Z,99885.44
2022-07-30T09:01:11.953Z,99881.94
2022-07-30T09:03:44.536Z,99883.22
2022-07-30T09:06:14.626Z,99881.47
2022-07-30T09:08:43.232Z,99877.78
2022-07-30T09:11:11.709Z,99885.44
2022-07-30T09:13:42.565Z,99883.09
2022-07-30T09:16:22.494Z,99883.91
2022-07-30T09:18:52.406Z,99896.47
2022-07-30T09:21:24.805Z,99896.16
2022-07-30T09:24:01.404Z,99894.19
2022-07-30T09:26:30.275Z,99906.66
2022-07-30T09:29:17.596Z,99900.34
2022-07-30T09:31:58.078Z,99900.22
2022-07-30T09:34:31.533Z,99890.63
2022-07-30T09:37:03.664Z,99908.72
2022-07-30T09:39:34.308Z,99909.41
2022-07-30T09:42:04.316Z,99905.25
2022-07-30T09:44:33.573Z,99906.75
2022-07-30T09:47:03.156Z,99901.44
2022-07-30T09:49:34.418Z,99911.66
2022-07-30T09:52:04.459Z,99912.13
2022-07-30T09:54:51.309Z,99918.59
2022-07-30T09:57:25.915Z,99931.16
2022-07-30T09:59:56.938Z,99923.06
2022-07-30T10:02:35.377Z,99919.31
2022-07-30T10:05:16.742Z,99922.34
2022-07-30T10:07:54.236Z,99922.94
2022-07-30T10:10:25.712Z,99919.53
2022-07-30T10:12:56.557Z,99920.78
2022-07-30T10:15:29.316Z,99907.19
2022-07-30T10:17:58.476Z,99910.81
2022-07-30T10:20:27.418Z,99906.31
2022-07-30T10:22:57.832Z,99893.81
2022-07-30T10:25:28.462Z,99892.13
2022-07-30T10:27:58.089Z,99895.38
2022-07-30T10:30:29.164Z,99883.25
2022-07-30T10:33:00.166Z,99884.34
2022-07-30T10:35:34.218Z,99890.94
2022-07-30T10:38:13.671Z,99891.25
2022-07-30T10:40:49.762Z,99893.63
2022-07-30T10:44:01.108Z,99894.09
2022-07-30T10:46:45.074Z,99897.91
2022-07-30T10:49:18.580Z,99895.44
2022-07-30T10:51:50.121Z,99891.19
2022-07-30T10:54:42.893Z,99888.69
2022-07-30T10:57:22.703Z,99892.53
2022-07-30T11:00:12.281Z,99885.44
2022-07-30T11:03:15.944Z,99881.00
2022-07-30T11:05:45.937Z,99879.38
2022-07-30T11:08:48.669Z,99888.81
2022-07-30T11:12:02.140Z,99884.63
2022-07-30T11:14:57.046Z,99885.06
2022-07-30T11:17:25.968Z,99885.47
2022-07-30T11:20:13.295Z,99875.69
2022-07-30T11:22:44.838Z,99874.06
2022-07-30T11:25:51.658Z,99877.31
2022-07-30T11:28:49.561Z,99873.31
2022-07-30T11:31:37.039Z,99871.78
2022-07-30T11:34:29.146Z,99868.81
2022-07-30T11:37:19.322Z,99865.38
2022-07-30T11:40:13.319Z,99863.09
2022-07-30T11:42:44.403Z,99864.28
2022-07-30T11:45:29.871Z,99857.63
2022-07-30T11:48:01.571Z,99867.13
2022-07-30T11:50:32.382Z,99865.44
2022-07-30T11:53:03.101Z,99870.38
2022-07-30T11:55:33.094Z,99864.13
2022-07-30T11:58:03.520Z,99868.97
2022-07-30T12:00:41.845Z,99858.31
2022-07-30T12:03:15.665Z,99856.72
2022-07-30T12:05:45.664Z,99859.97
2022-07-30T12:08:35.929Z,99867.22
2022-07-30T12:11:05.196Z,99866.94
2022-07-30T12:13:45.748Z,99868.72
2022-07-30T12:16:18.122Z,99862.34
2022-07-30T12:18:47.807Z,99866.09
2022-07-30T12:21:17.423Z,99863.69
2022-07-30T12:23:56.048Z,99855.00
2022-07-30T12:26:27.147Z,99875.34
2022-07-30T12:28:56.767Z,99860.69
2022-07-30T12:31:27.168Z,99871.56
2022-07-30T12:33:58.992Z,99857.53
2022-07-30T12:36:32.891Z,99863.75
2022-07-30T12:39:01.973Z,99861.53
2022-07-30T12:41:52.176Z,99870.13
2022-07-30T12:44:39.922Z,99860.22
2022-07-30T12:47:22.011Z,99860.69
2022-07-30T12:49:53.378Z,99846.47
2022-07-30T12:52:28.699Z,99857.22
2022-07-30T12:55:07.186Z,99862.66
2022-07-30T12:57:55.833Z,99856.22
2022-07-30T13:00:24.691Z,99859.53
2022-07-30T13:02:55.384Z,99863.00
2022-07-30T13:05:44.389Z,99854.94
2022-07-30T13:08:12.942Z,99850.41
2022-07-30T13:10:55.913Z,99866.22
2022-07-30T13:13:24.761Z,99864.81
2022-07-30T13:16:01.287Z,99858.03
2022-07-30T13:18:32.115Z,99858.06
2022-07-30T13:21:01.121Z,99865.09
2022-07-30T13:23:30.875Z,99854.78
2022-07-30T13:25:59.541Z,99856.63
2022-07-30T13:28:28.426Z,99857.25
2022-07-30T13:30:58.142Z,99850.84
2022-07-30T13:33:27.164Z,99846.31
2022-07-30T13:35:57.488Z,99844.47
2022-07-30T13:38:26.488Z,99848.19
2022-07-30T13:40:58.016Z,99840.75
2022-07-30T13:43:32.047Z,99850.28
2022-07-30T13:46:03.259Z,99848.19
2022-07-30T13:48:32.113Z,99846.91
2022-07-30T13:51:04.477Z,99849.59
2022-07-30T13:53:33.508Z,99847.16
2022-07-30T13:56:02.027Z,99849.84
2022-07-30T13:58:35.732Z,99846.91
2022-07-30T14:01:07.659Z,99844.22
2022-07-30T14:03:36.625Z,99838.25
2022-07-30T14:06:10.617Z,99849.00
2022-07-30T14:08:40.099Z,99849.38
2022-07-30T14:11:08.631Z,99845.22
2022-07-30T14:13:38.132Z,99845.19
2022-07-30T14:16:18.121Z,99835.25
2022-07-30T14:18:55.872Z,99838.13
2022-07-30T14:21:26.432Z,99830.06
2022-07-30T14:23:55.235Z,99824.31
2022-07-30T14:26:23.698Z,99815.41
2022-07-30T14:28:52.184Z,99820.00
2022-07-30T14:31:20.659Z,99806.00
2022-07-30T14:33:49.078Z,99800.91
2022-07-30T14:36:17.856Z,99811.44
2022-07-30T14:38:47.967Z,99814.75
2022-07-30T14:41:16.869Z,99817.28
2022-07-30T14:43:45.348Z,99798.94
2022-07-30T14:46:14.258Z,99807.31
2022-07-30T14:48:42.760Z,99804.19
2022-07-30T14:51:16.831Z,99804.19
2022-07-30T14:53:53.805Z,99806.19
2022-07-30T14:56:24.237Z,99809.41
2022-07-30T14:58:55.735Z,99813.31
2022-07-30T15:01:24.207Z,99811.06
2022-07-30T15:03:52.737Z,99809.41
2022-07-30T15:06:21.257Z,99808.03
2022-07-30T15:08:51.153Z,99809.25
2022-07-30T15:11:21.869Z,99806.00
2022-07-30T15:13:50.862Z,99801.06
2022-07-30T15:16:20.384Z,99796.97
2022-07-30T15:18:48.790Z,99811.59
2022-07-30T15:21:17.389Z,99799.56
2022-07-30T15:23:45.925Z,99801.56
2022-07-30T15:26:15.843Z,99800.16
2022-07-30T15:28:44.854Z,99799.25
2022-07-30T15:31:13.462Z,99800.19
2022-07-30T15:33:43.413Z,99791.72
2022-07-30T15:36:12.727Z,99799.81
2022-07-30T15:38:41.218Z,99803.94
2022-07-30T15:41:13.506Z,99799.41
2022-07-30T15:43:43.634Z,99792.88
2022-07-30T15:46:12.226Z,99799.56
2022-07-30T15:48:40.825Z,99790.63
2022-07-30T15:51:09.632Z,99794.34
2022-07-30T15:53:38.113Z,99790.44
2022-07-30T15:56:07.018Z,99791.31
2022-07-30T15:58:37.431Z,99795.47
2022-07-30T16:01:10.523Z,99794.66
2022-07-30T16:03:39.059Z,99798.38
2022-07-30T16:06:07.811Z,99785.78
2022-07-30T16:08:36.341Z,99792.00
2022-07-30T16:11:05.318Z,99789.94
2022-07-30T16:13:33.742Z,99797.34
2022-07-30T16:16:02.209Z,99784.59
2022-07-30T16:18:32.105Z,99785.00
2022-07-30T16:21:01.478Z,99790.16
2022-07-30T16:23:36.509Z,99794.69
2022-07-30T16:26:05.692Z,99789.13
2022-07-30T16:28:34.306Z,99789.53
2022-07-30T16:31:02.920Z,99787.50
2022-07-30T16:33:33.031Z,99773.03
2022-07-30T16:36:01.515Z,99790.38
2022-07-30T16:38:30.037Z,99789.53
2022-07-30T16:40:58.688Z,99788.72
2022-07-30T16:43:27.178Z,99787.06
2022-07-30T16:45:55.674Z,99779.66
2022-07-30T16:48:24.349Z,99782.97
2022-07-30T16:50:54.203Z,99791.19
2022-07-30T16:53:23.057Z,99789.38
2022-07-30T16:55:51.546Z,99785.41
2022-07-30T16:58:21.322Z,99795.31
2022-07-30T17:00:56.818Z,99794.06
2022-07-30T17:03:25.775Z,99787.91
2022-07-30T17:05:55.683Z,99797.41
2022-07-30T17:08:24.854Z,99782.97
2022-07-30T17:10:54.537Z,99771.22
2022-07-30T17:13:27.218Z,99779.69
2022-07-30T17:15:55.627Z,99791.22
2022-07-30T17:18:24.113Z,99781.31
2022-07-30T17:20:53.061Z,99785.81
2022-07-30T17:23:23.089Z,99779.84
2022-07-30T17:25:51.637Z,99798.19
2022-07-30T17:28:21.779Z,99793.25
2022-07-30T17:30:55.807Z,99789.72
2022-07-30T17:33:25.246Z,99794.06
2022-07-30T17:35:53.883Z,99790.34
2022-07-30T17:38:24.097Z,99790.13
2022-07-30T17:40:52.628Z,99793.66
2022-07-30T17:43:23.956Z,99792.84
2022-07-30T17:45:53.036Z,99789.31
2022-07-30T17:48:21.990Z,99777.78
2022-07-30T17:50:51.566Z,99783.75
2022-07-30T17:53:20.121Z,99778.59
2022-07-30T17:55:57.493Z,99778.19
2022-07-30T17:58:27.090Z,99777.97
2022-07-30T18:00:56.061Z,99777.97
2022-07-30T18:03:24.765Z,99779.22
2022-07-30T18:05:53.579Z,99776.75
2022-07-30T18:08:23.063Z,99781.28
2022-07-30T18:10:53.327Z,99783.34
2022-07-30T18:13:26.763Z,99789.53
2022-07-30T18:15:56.129Z,99780.25
2022-07-30T18:18:24.917Z,99785.41
2022-07-30T18:20:53.360Z,99787.03
2022-07-30T18:23:22.756Z,99794.91
2022-07-30T18:25:54.456Z,99795.28
2022-07-30T18:28:23.466Z,99800.66
2022-07-30T18:30:52.651Z,99790.34
2022-07-30T18:33:21.539Z,99787.84
2022-07-30T18:35:50.338Z,99798.59
2022-07-30T18:38:19.174Z,99800.63
2022-07-30T18:40:57.938Z,99797.16
2022-07-30T18:43:29.035Z,99799.44
2022-07-30T18:45:58.444Z,99797.56
2022-07-30T18:48:27.891Z,99799.41
2022-07-30T18:50:56.821Z,99796.31
2022-07-30T18:53:25.319Z,99794.06
2022-07-30T18:55:54.291Z,99801.06
2022-07-30T18:58:23.435Z,99795.69
2022-07-30T19:00:53.902Z,99801.25
2022-07-30T19:03:23.270Z,99809.50
2022-07-30T19:05:51.915Z,99801.91
2022-07-30T19:08:20.412Z,99808.50
2022-07-30T19:10:49.005Z,99806.63
2022-07-30T19:13:17.587Z,99806.00
2022-07-30T19:15:46.102Z,99810.53
2022-07-30T19:18:16.013Z,99809.31
2022-07-30T19:20:44.910Z,99816.69
2022-07-30T19:23:13.901Z,99817.13
2022-07-30T19:25:43.122Z,99818.78
2022-07-30T19:28:14.050Z,99815.91
2022-07-30T19:30:42.534Z,99816.72
2022-07-30T19:33:15.574Z,99811.78
2022-07-30T19:35:46.057Z,99814.25
2022-07-30T19:38:22.036Z,99811.38
2022-07-30T19:40:52.654Z,99818.16
2022-07-30T19:43:23.948Z,99824.34
2022-07-30T19:45:54.233Z,99808.69
2022-07-30T19:48:29.383Z,99820.63
2022-07-30T19:51:01.940Z,99816.94
2022-07-30T19:53:31.278Z,99820.41
2022-07-30T19:56:02.184Z,99821.25
2022-07-30T19:58:32.621Z,99817.75
2022-07-30T20:01:01.483Z,99819.41
2022-07-30T20:03:31.859Z,99823.91
2022-07-30T20:06:02.562Z,99820.81
2022-07-30T20:08:31.570Z,99824.94
2022-07-30T20:11:01.696Z,99826.59
2022-07-30T20:13:45.310Z,99831.13
2022-07-30T20:16:14.952Z,99824.72
2022-07-30T20:18:45.829Z,99819.78
2022-07-30T20:21:16.762Z,99834.00
2022-07-30T20:23:47.223Z,99829.69
2022-07-30T20:26:22.018Z,99835.84
2022-07-30T20:28:52.878Z,99838.09
2022-07-30T20:31:22.260Z,99830.66
2022-07-30T20:33:50.897Z,99819.94
2022-07-30T20:36:22.661Z,99840.94
2022-07-30T20:38:51.448Z,99834.97
2022-07-30T20:41:20.097Z,99842.16
2022-07-30T20:43:52.561Z,99842.16
2022-07-30T20:46:23.821Z,99843.19
2022-07-30T20:48:53.558Z,99849.16
2022-07-30T20:51:33.689Z,99848.72
2022-07-30T20:54:02.728Z,99844.38
2022-07-30T20:56:31.351Z,99837.56
2022-07-30T20:58:59.831Z,99850.75
2022-07-30T21:01:30.706Z,99852.19
2022-07-30T21:03:59.677Z,99848.88
2022-07-30T21:06:29.789Z,99844.53
2022-07-30T21:08:58.706Z,99856.28
2022-07-30T21:11:27.987Z,99861.00
2022-07-30T21:13:56.608Z,99856.28
2022-07-30T21:16:30.628Z,99853.16
2022-07-30T21:18:59.212Z,99858.94
2022-07-30T21:21:38.586Z,99865.44
2022-07-30T21:24:15.677Z,99857.19
2022-07-30T21:26:46.646Z,99864.53
2022-07-30T21:29:15.229Z,99862.25
2022-07-30T21:32:00.465Z,99861.41
2022-07-30T21:34:36.032Z,99864.69
2022-07-30T21:37:12.985Z,99865.97
2022-07-30T21:39:44.088Z,99860.09
2022-07-30T21:42:12.967Z,99879.91
2022-07-30T21:44:41.703Z,99866.66
2022-07-30T21:47:10.751Z,99878.38
2022-07-30T21:49:40.252Z,99876.25
2022-07-30T21:52:15.117Z,99864.06
2022-07-30T21:54:50.434Z,99879.94
2022-07-30T21:57:26.203Z,99873.34
2022-07-30T21:59:55.606Z,99888.59
2022-07-30T22:02:24.186Z,99890.59
2022-07-30T22:04:54.085Z,99886.25
2022-07-30T22:07:24.966Z,99891.22
2022-07-30T22:09:55.357Z,99892.63
2022-07-30T22:12:25.907Z,99899.19
2022-07-30T22:14:57.854Z,99888.63
2022-07-30T22:17:37.254Z,99883.50
2022-07-30T22:20:14.804Z,99912.53
2022-07-30T22:22:44.808Z,99903.41
2022-07-30T22:25:14.195Z,99905.06
2022-07-30T22:27:56.596Z,99910.63
2022-07-30T22:30:27.491Z,99912.84
2022-07-30T22:32:56.261Z,99917.81
2022-07-30T22:35:32.391Z,99921.88
2022-07-30T22:38:04.399Z,99926.16
2022-07-30T22:40:33.507Z,99929.66
2022-07-30T22:43:07.785Z,99926.97
2022-07-30T22:45:48.139Z,99932.78
2022-07-30T22:48:19.316Z,99931.31
2022-07-30T22:50:52.306Z,99928.38
2022-07-30T22:54:10.806Z,99928.78
2022-07-30T22:56:14.324Z,99940.34
2022-07-30T22:58:44.779Z,99938.28
2022-07-30T23:01:17.307Z,99938.28
2022-07-30T23:03:46.247Z,99936.41
2022-07-30T23:06:16.808Z,99931.66
2022-07-30T23:08:50.785Z,99941.97
2022-07-30T23:11:19.487Z,99937.19
2022-07-30T23:13:49.319Z,99935.78
2022-07-30T23:16:17.848Z,99937.81
2022-07-30T23:18:46.408Z,99930.81
2022-07-30T23:21:15.529Z,99944.03
2022-07-30T23:23:44.122Z,99940.72
2022-07-30T23:26:14.314Z,99939.47
2022-07-30T23:28:43.116Z,99939.28
2022-07-30T23:31:12.200Z,99936.41
2022-07-30T23:33:41.401Z,99934.75
2022-07-30T23:36:11.013Z,99945.28
2022-07-30T23:38:39.651Z,99947.34
2022-07-30T23:41:08.090Z,99941.63
2022-07-30T23:43:38.524Z,99939.16
2022-07-30T23:46:10.899Z,99939.53
2022-07-30T23:48:39.826Z,99952.31
2022-07-30T23:51:08.426Z,99935.97
2022-07-30T23:53:37.068Z,99935.78
2022-07-30T23:56:06.218Z,99951.03
2022-07-30T23:58:34.868Z,99950.66
